Strona główna
METAR-TAF:

METAR-TAF

Lotnisko :

Santa Cruz, Rio de Janeiro, Brazylia

Szerokość geograficzna: 22-56S, Długość geograficzna: 043-43W, wysokość: 3 m

Aktualna obserwacja pogody

Raport powstał 59 minut temu, godzina 07:00 UTC
Wiatr 4 kt od północno-północny zachód
Temperatura 22°C
Wilgotność 88%
Ciśnienie 1012 hPa
Widzialność 10 km lub więcej
Brak chmur poniżej 1500 m i brak chmur cumulonimbus

METAR: SBSC 030700Z 34004KT CAVOK 22/20 Q1012

czas: 04:59 (07:59 UTC)

Prognoza

Raport powstał 4 godziny i 59 minut temu, godzina 03:00 UTC
Prognoza ważna od 03 godzina 06 UTC do 03 godzina 18 UTC
Wiatr 5 kt od północno-północny wschód
Widzialność 10 km lub więcej
Brak chmur poniżej 1500 m i brak chmur cumulonimbus
Stopniowe zmiany
od 03 godzina 13 UTC do 03 godzina 14 UTC
Wiatr 13 kt od północno-północny wschód
Widzialność 10 km lub więcej
Rozproszone chmury na wysokości 3500 ft

TAF: SBSC 030300Z 0306/0318 02005KT CAVOK TN22/0309Z TX34/0318Z BECMG 0313/0314 02013KT 9999 SCT035 RMK PDY

Obserwacja i prognoza pogody dla ponad 4000 lotnisk (raport METAR i TAF).

Dostępne stacje oznaczono żółtymi i czerwonymi punktami na mapie.

Najedź kursorem aby zobaczyć nazwę stacji.

Kliknij aby zobaczyć obserwacje i prognozy pogody.

Aby zmienić mapę: kliknij na zielony przycisk z czarnym krzyżykiem, aby powiększyć; na zielony przycisk z myślnikiem, aby pomniejszyć; na zielone strzałki, aby przejść do map sąsiednich.


METAR-TAF: